createdAt,value
2018-06-17T00:00:19.068Z,7.37
2018-06-17T00:03:21.988Z,6.67
2018-06-17T00:06:25.100Z,11.70
2018-06-17T00:09:28.139Z,8.57
2018-06-17T00:12:31.069Z,7.10
2018-06-17T00:15:35.040Z,5.73
2018-06-17T00:18:38.152Z,6.40
2018-06-17T00:21:41.377Z,12.60
2018-06-17T00:24:44.278Z,10.20
2018-06-17T00:27:47.272Z,6.70
2018-06-17T00:30:50.265Z,8.00
2018-06-17T00:33:53.240Z,6.13
2018-06-17T00:36:56.165Z,9.57
2018-06-17T00:40:00.138Z,6.27
2018-06-17T00:43:03.138Z,7.03
2018-06-17T00:46:06.244Z,9.47
2018-06-17T00:49:09.280Z,7.13
2018-06-17T00:52:12.202Z,7.43
2018-06-17T00:55:15.206Z,7.70
2018-06-17T00:58:18.078Z,7.70
2018-06-17T01:01:21.288Z,5.47
2018-06-17T01:04:24.430Z,6.90
2018-06-17T01:07:27.443Z,7.63
2018-06-17T01:10:30.464Z,6.93
2018-06-17T01:13:33.730Z,6.23
2018-06-17T01:16:37.374Z,5.33
2018-06-17T01:19:40.393Z,6.20
2018-06-17T01:22:43.813Z,7.13
2018-06-17T01:25:46.921Z,6.73
2018-06-17T01:28:50.045Z,8.43
2018-06-17T01:31:52.982Z,8.00
2018-06-17T01:34:55.900Z,5.57
2018-06-17T01:37:58.858Z,4.80
2018-06-17T01:41:01.847Z,6.10
2018-06-17T01:44:05.902Z,7.70
2018-06-17T01:47:08.956Z,9.20
2018-06-17T01:50:11.881Z,5.43
2018-06-17T01:53:14.851Z,6.33
2018-06-17T01:56:17.848Z,4.03
2018-06-17T01:59:20.965Z,5.93
2018-06-17T02:02:24.199Z,6.77
2018-06-17T02:05:33.169Z,5.07
2018-06-17T02:08:41.688Z,3.63
2018-06-17T02:12:16.945Z,6.23
2018-06-17T02:15:19.899Z,7.20
2018-06-17T02:18:22.840Z,4.30
2018-06-17T02:21:25.868Z,4.57
2018-06-17T02:24:28.878Z,5.77
2018-06-17T02:27:31.906Z,4.27
2018-06-17T02:30:34.837Z,4.50
2018-06-17T02:33:37.823Z,7.43
2018-06-17T02:36:41.850Z,5.63
2018-06-17T02:39:45.146Z,4.77
2018-06-17T02:42:48.156Z,6.70
2018-06-17T02:45:56.692Z,8.50
2018-06-17T02:49:14.781Z,7.47
2018-06-17T02:52:23.513Z,9.13
2018-06-17T02:55:26.420Z,6.57
2018-06-17T02:58:29.609Z,7.20
2018-06-17T03:01:32.592Z,8.33
2018-06-17T03:04:35.573Z,10.90
2018-06-17T03:07:38.553Z,6.57
2018-06-17T03:10:42.561Z,9.73
2018-06-17T03:13:45.597Z,6.43
2018-06-17T03:16:48.507Z,4.97
2018-06-17T03:19:51.403Z,9.33
2018-06-17T03:22:54.329Z,7.67
2018-06-17T03:26:02.860Z,12.00
2018-06-17T03:29:11.482Z,8.67
2018-06-17T03:32:20.197Z,9.27
2018-06-17T03:35:28.774Z,9.53
2018-06-17T03:38:31.704Z,8.47
2018-06-17T03:41:34.682Z,6.07
2018-06-17T03:44:38.717Z,5.73
2018-06-17T03:47:42.777Z,5.57
2018-06-17T03:50:45.814Z,5.40
2018-06-17T03:53:48.801Z,8.03
2018-06-17T03:56:53.532Z,5.23
2018-06-17T03:59:56.426Z,6.83
2018-06-17T04:02:59.391Z,7.80
2018-06-17T04:06:02.396Z,3.57
2018-06-17T04:09:06.188Z,4.17
2018-06-17T04:12:09.133Z,5.17
2018-06-17T04:15:12.058Z,7.10
2018-06-17T04:18:15.060Z,8.07
2018-06-17T04:21:18.047Z,8.37
2018-06-17T04:24:20.930Z,8.67
2018-06-17T04:27:23.939Z,3.90
2018-06-17T04:30:26.901Z,3.37
2018-06-17T04:33:29.918Z,6.40
2018-06-17T04:36:32.990Z,5.53
2018-06-17T04:39:36.995Z,2.53
2018-06-17T04:42:39.890Z,4.10
2018-06-17T04:45:42.849Z,5.83
2018-06-17T04:48:45.934Z,4.87
2018-06-17T04:51:49.931Z,4.77
2018-06-17T04:54:52.974Z,3.40
2018-06-17T04:57:55.963Z,4.67
2018-06-17T05:00:58.951Z,4.77
2018-06-17T05:04:01.917Z,3.63
2018-06-17T05:07:04.828Z,3.63
2018-06-17T05:10:07.873Z,3.87
2018-06-17T05:13:10.828Z,3.40
2018-06-17T05:16:13.764Z,4.87
2018-06-17T05:19:16.651Z,2.20
2018-06-17T05:22:19.599Z,2.67
2018-06-17T05:25:22.592Z,2.53
2018-06-17T05:28:25.735Z,3.43
2018-06-17T05:31:28.616Z,4.07
2018-06-17T05:34:31.690Z,1.83
2018-06-17T05:37:34.722Z,3.03
2018-06-17T05:40:37.618Z,2.00
2018-06-17T05:43:40.631Z,1.63
2018-06-17T05:46:43.695Z,2.77
2018-06-17T05:49:46.654Z,3.87
2018-06-17T05:52:49.675Z,2.57
2018-06-17T05:55:52.630Z,3.07
2018-06-17T05:58:55.657Z,2.93
2018-06-17T06:01:58.616Z,3.63
2018-06-17T06:05:01.631Z,3.47
2018-06-17T06:08:04.609Z,1.53
2018-06-17T06:11:07.528Z,1.30
2018-06-17T06:14:11.725Z,0.97
2018-06-17T06:17:14.708Z,1.50
2018-06-17T06:20:17.785Z,0.70
2018-06-17T06:23:21.134Z,2.03
2018-06-17T06:26:24.135Z,1.77
2018-06-17T06:29:27.140Z,1.63
2018-06-17T06:32:30.142Z,0.97
2018-06-17T06:35:33.148Z,1.20
2018-06-17T06:38:36.221Z,1.87
2018-06-17T06:41:39.228Z,1.37
2018-06-17T06:44:42.241Z,1.43
2018-06-17T06:47:45.271Z,2.77
2018-06-17T06:50:48.592Z,2.50
2018-06-17T06:53:51.597Z,2.17
2018-06-17T06:56:54.553Z,2.10
2018-06-17T06:59:57.660Z,1.47
2018-06-17T07:03:17.966Z,1.13
2018-06-17T07:06:38.008Z,2.33
2018-06-17T07:09:52.439Z,4.70
2018-06-17T07:12:55.528Z,1.97
2018-06-17T07:16:15.736Z,2.60
2018-06-17T07:19:18.854Z,1.57
2018-06-17T07:22:22.045Z,0.97
2018-06-17T07:26:48.362Z,1.10
2018-06-17T07:29:52.256Z,1.07
2018-06-17T07:32:55.226Z,0.70
2018-06-17T07:35:58.299Z,0.47
2018-06-17T07:39:17.424Z,0.30
2018-06-17T07:42:20.469Z,0.30
2018-06-17T07:45:23.495Z,2.63
2018-06-17T07:49:47.021Z,1.77
2018-06-17T07:53:07.111Z,0.27
2018-06-17T07:56:10.278Z,1.50
2018-06-17T07:59:13.425Z,0.50
2018-06-17T08:02:16.693Z,0.40
2018-06-17T08:05:19.697Z,0.40
2018-06-17T08:08:22.724Z,1.40
2018-06-17T08:11:25.858Z,1.30
2018-06-17T08:14:28.268Z,0.20
2018-06-17T08:17:31.270Z,0.73
2018-06-17T08:20:34.534Z,0.20
2018-06-17T08:23:37.552Z,0.87
2018-06-17T08:26:41.275Z,0.77
2018-06-17T08:29:44.291Z,0.50
2018-06-17T08:32:47.321Z,0.73
2018-06-17T08:35:50.723Z,0.77
2018-06-17T08:38:53.837Z,2.33
2018-06-17T08:41:56.981Z,1.33
2018-06-17T08:45:00.041Z,3.13
2018-06-17T08:48:03.117Z,0.93
2018-06-17T08:51:06.304Z,2.10
2018-06-17T08:54:09.398Z,1.50
2018-06-17T08:57:12.424Z,0.73
2018-06-17T09:00:15.403Z,1.20
2018-06-17T09:03:18.362Z,1.60
2018-06-17T09:06:21.699Z,5.33
2018-06-17T09:09:24.878Z,1.67
2018-06-17T09:12:28.025Z,0.80
2018-06-17T09:15:31.042Z,1.07
2018-06-17T09:18:34.221Z,1.20
2018-06-17T09:21:37.229Z,1.07
2018-06-17T09:24:40.210Z,1.07
2018-06-17T09:27:43.524Z,2.97
2018-06-17T09:30:46.522Z,1.00
2018-06-17T09:33:49.718Z,1.93
2018-06-17T09:36:52.800Z,1.90
2018-06-17T09:39:56.028Z,1.43
2018-06-17T09:42:59.067Z,1.33
2018-06-17T09:46:02.037Z,1.00
2018-06-17T09:49:05.110Z,1.00
2018-06-17T09:52:08.169Z,1.53
2018-06-17T09:55:12.140Z,2.67
2018-06-17T09:58:15.156Z,3.33
2018-06-17T10:01:18.147Z,3.57
2018-06-17T10:04:21.309Z,2.77
2018-06-17T10:07:24.287Z,5.20
2018-06-17T10:10:42.636Z,2.60
2018-06-17T10:13:45.929Z,1.33
2018-06-17T10:16:49.936Z,2.33
2018-06-17T10:19:53.019Z,2.80
2018-06-17T10:22:56.049Z,2.63
2018-06-17T10:25:59.032Z,1.83
2018-06-17T10:29:02.017Z,3.33
2018-06-17T10:32:05.036Z,2.47
2018-06-17T10:35:08.016Z,1.83
2018-06-17T10:38:11.288Z,2.10
2018-06-17T10:41:14.280Z,1.97
2018-06-17T10:44:17.260Z,1.77
2018-06-17T10:47:20.241Z,2.70
2018-06-17T10:50:23.209Z,2.40
2018-06-17T10:53:26.281Z,4.00
2018-06-17T10:56:29.295Z,1.23
2018-06-17T10:59:32.317Z,1.90
2018-06-17T11:02:35.570Z,1.80
2018-06-17T11:05:38.609Z,0.93
2018-06-17T11:08:41.631Z,1.37
2018-06-17T11:11:44.703Z,3.27
2018-06-17T11:14:47.765Z,2.20
2018-06-17T11:17:50.761Z,2.10
2018-06-17T11:20:53.951Z,0.77
2018-06-17T11:23:57.015Z,3.73
2018-06-17T11:26:59.937Z,1.57
2018-06-17T11:30:03.026Z,2.93
2018-06-17T11:33:05.976Z,1.63
2018-06-17T11:36:09.006Z,1.63
2018-06-17T11:39:13.069Z,1.70
2018-06-17T11:42:16.953Z,2.50
2018-06-17T11:45:19.979Z,3.27
2018-06-17T11:48:23.113Z,1.73
2018-06-17T11:51:26.138Z,1.73
2018-06-17T11:54:29.068Z,0.97
2018-06-17T11:57:31.999Z,3.90
2018-06-17T12:00:35.166Z,3.60
2018-06-17T12:03:38.150Z,1.20
2018-06-17T12:06:41.530Z,4.90
2018-06-17T12:09:44.547Z,3.97
2018-06-17T12:12:47.485Z,1.40
2018-06-17T12:15:50.494Z,2.70
2018-06-17T12:18:53.567Z,1.97
2018-06-17T12:21:56.491Z,2.43
2018-06-17T12:24:59.536Z,2.90
2018-06-17T12:28:02.694Z,4.47
2018-06-17T12:31:05.857Z,3.13
2018-06-17T12:34:08.835Z,3.90
2018-06-17T12:37:11.759Z,1.87
2018-06-17T12:40:14.693Z,3.87
2018-06-17T12:43:17.747Z,3.50
2018-06-17T12:46:20.822Z,1.57
2018-06-17T12:49:23.808Z,2.63
2018-06-17T12:52:26.902Z,2.20
2018-06-17T12:55:29.882Z,2.70
2018-06-17T12:58:32.797Z,2.43
2018-06-17T13:01:35.876Z,2.40
2018-06-17T13:04:39.548Z,1.77
2018-06-17T13:07:42.542Z,1.97
2018-06-17T13:10:45.637Z,1.43
2018-06-17T13:13:48.627Z,3.43
2018-06-17T13:16:51.618Z,4.07
2018-06-17T13:19:54.708Z,1.43
2018-06-17T13:22:57.666Z,1.57
2018-06-17T13:26:00.768Z,1.97
2018-06-17T13:29:05.848Z,2.53
2018-06-17T13:32:08.805Z,2.27
2018-06-17T13:35:15.404Z,4.77
2018-06-17T13:38:18.530Z,4.43
2018-06-17T13:41:21.913Z,3.33
2018-06-17T13:44:25.141Z,3.57
2018-06-17T13:47:28.304Z,1.13
2018-06-17T13:50:32.559Z,1.40
2018-06-17T13:53:35.596Z,4.10
2018-06-17T13:56:38.577Z,2.50
2018-06-17T13:59:41.528Z,1.47
2018-06-17T14:02:44.547Z,2.67
2018-06-17T14:05:47.543Z,6.37
2018-06-17T14:08:50.546Z,5.00
2018-06-17T14:11:53.517Z,1.80
2018-06-17T14:14:56.518Z,1.37
2018-06-17T14:17:59.657Z,1.80
2018-06-17T14:21:02.843Z,3.03
2018-06-17T14:24:05.806Z,2.23
2018-06-17T14:27:08.839Z,1.47
2018-06-17T14:30:11.770Z,3.47
2018-06-17T14:33:15.743Z,2.43
2018-06-17T14:36:18.679Z,2.10
2018-06-17T14:39:21.933Z,1.97
2018-06-17T14:42:30.891Z,4.07
2018-06-17T14:45:39.583Z,4.43
2018-06-17T14:48:48.133Z,1.00
2018-06-17T14:51:57.757Z,2.67
2018-06-17T14:55:00.770Z,2.57
2018-06-17T14:58:04.265Z,2.40
2018-06-17T15:01:07.334Z,1.93
2018-06-17T15:04:10.364Z,3.00
2018-06-17T15:07:13.324Z,3.97
2018-06-17T15:10:16.333Z,3.43
2018-06-17T15:13:19.686Z,1.73
2018-06-17T15:16:22.703Z,2.70
2018-06-17T15:19:26.835Z,2.83
2018-06-17T15:22:30.116Z,1.20
2018-06-17T15:25:33.092Z,1.80
2018-06-17T15:28:36.120Z,6.63
2018-06-17T15:31:44.822Z,2.77
2018-06-17T15:34:53.481Z,2.13
2018-06-17T15:38:02.590Z,2.03
2018-06-17T15:41:11.326Z,0.87
2018-06-17T15:44:14.503Z,0.70
2018-06-17T15:47:18.965Z,1.20
2018-06-17T15:50:21.981Z,0.83
2018-06-17T15:53:24.990Z,2.30
2018-06-17T15:56:28.046Z,1.20
2018-06-17T15:59:31.043Z,2.30
2018-06-17T16:02:34.047Z,2.60
2018-06-17T16:05:37.071Z,2.17
2018-06-17T16:08:40.041Z,1.40
2018-06-17T16:11:48.772Z,2.93
2018-06-17T16:14:57.559Z,4.10
2018-06-17T16:18:06.222Z,4.00
2018-06-17T16:21:09.413Z,3.03
2018-06-17T16:24:12.551Z,2.90
2018-06-17T16:27:15.662Z,3.67
2018-06-17T16:30:18.677Z,3.93
2018-06-17T16:33:21.794Z,3.00
2018-06-17T16:36:24.788Z,2.83
2018-06-17T16:39:27.780Z,6.50
2018-06-17T16:42:30.928Z,3.17
2018-06-17T16:45:34.002Z,9.90
2018-06-17T16:48:37.071Z,6.23
2018-06-17T16:51:45.730Z,3.83
2018-06-17T16:54:54.522Z,3.70
2018-06-17T16:58:03.274Z,4.03
2018-06-17T17:01:06.261Z,4.00
2018-06-17T17:04:09.279Z,9.10
2018-06-17T17:07:12.310Z,4.13
2018-06-17T17:10:15.249Z,7.50
2018-06-17T17:13:19.364Z,4.03
2018-06-17T17:16:22.356Z,4.10
2018-06-17T17:19:25.339Z,3.80
2018-06-17T17:22:29.403Z,6.73
2018-06-17T17:25:32.507Z,4.17
2018-06-17T17:28:35.506Z,3.03
2018-06-17T17:31:44.312Z,3.37
2018-06-17T17:34:52.899Z,4.80
2018-06-17T17:38:01.512Z,3.33
2018-06-17T17:41:05.227Z,5.17
2018-06-17T17:44:08.272Z,2.70
2018-06-17T17:47:16.998Z,4.27
2018-06-17T17:50:20.183Z,6.83
2018-06-17T17:53:23.222Z,6.03
2018-06-17T17:56:26.262Z,4.43
2018-06-17T17:59:29.315Z,7.37
2018-06-17T18:02:32.241Z,3.57
2018-06-17T18:05:35.353Z,2.67
2018-06-17T18:08:38.388Z,4.57
2018-06-17T18:11:41.524Z,5.67
2018-06-17T18:14:44.498Z,3.90
2018-06-17T18:17:47.572Z,4.10
2018-06-17T18:20:50.627Z,8.47
2018-06-17T18:23:53.857Z,5.47
2018-06-17T18:27:02.760Z,5.60
2018-06-17T18:30:11.438Z,4.03
2018-06-17T18:33:19.918Z,5.43
2018-06-17T18:36:23.970Z,4.30
2018-06-17T18:39:27.513Z,5.20
2018-06-17T18:42:30.513Z,3.83
2018-06-17T18:45:33.521Z,4.73
2018-06-17T18:48:36.579Z,5.47
2018-06-17T18:51:39.562Z,5.50
2018-06-17T18:54:42.528Z,3.70
2018-06-17T18:57:45.880Z,6.40
2018-06-17T19:00:49.570Z,4.60
2018-06-17T19:03:52.656Z,8.43
2018-06-17T19:06:55.623Z,3.50
2018-06-17T19:10:06.743Z,7.73
2018-06-17T19:13:18.395Z,4.23
2018-06-17T19:16:27.242Z,4.03
2018-06-17T19:19:30.648Z,4.83
2018-06-17T19:22:33.832Z,2.80
2018-06-17T19:25:36.892Z,3.47
2018-06-17T19:28:40.011Z,3.97
2018-06-17T19:31:43.109Z,3.87
2018-06-17T19:34:46.304Z,4.87
2018-06-17T19:37:49.371Z,7.67
2018-06-17T19:40:52.378Z,3.90
2018-06-17T19:43:55.323Z,3.17
2018-06-17T19:46:58.318Z,2.87
2018-06-17T19:50:06.858Z,4.97
2018-06-17T19:53:15.341Z,3.33
2018-06-17T19:56:24.041Z,2.50
2018-06-17T19:59:32.643Z,5.07
2018-06-17T20:02:35.776Z,8.53
2018-06-17T20:05:38.784Z,2.43
2018-06-17T20:08:41.887Z,6.73
2018-06-17T20:11:44.894Z,4.20
2018-06-17T20:14:47.842Z,4.20
2018-06-17T20:17:50.810Z,3.50
2018-06-17T20:20:53.884Z,5.20
2018-06-17T20:23:56.898Z,6.07
2018-06-17T20:26:59.913Z,3.77
2018-06-17T20:30:05.927Z,3.73
2018-06-17T20:33:14.634Z,7.07
2018-06-17T20:36:23.448Z,5.00
2018-06-17T20:39:32.040Z,6.23
2018-06-17T20:42:41.616Z,2.83
2018-06-17T20:45:44.769Z,4.17
2018-06-17T20:48:48.513Z,3.83
2018-06-17T20:51:52.862Z,6.23
2018-06-17T20:54:56.795Z,4.63
2018-06-17T20:57:59.938Z,4.40
2018-06-17T21:01:03.053Z,4.47
2018-06-17T21:04:06.110Z,4.37
2018-06-17T21:07:09.210Z,4.13
2018-06-17T21:10:12.330Z,6.83
2018-06-17T21:13:15.373Z,4.00
2018-06-17T21:16:18.366Z,7.33
2018-06-17T21:19:27.061Z,2.33
2018-06-17T21:22:36.645Z,3.07
2018-06-17T21:25:45.384Z,5.00
2018-06-17T21:28:48.450Z,5.53
2018-06-17T21:31:51.402Z,3.40
2018-06-17T21:34:54.424Z,3.80
2018-06-17T21:37:57.432Z,3.20
2018-06-17T21:41:00.381Z,2.47
2018-06-17T21:44:03.397Z,4.47
2018-06-17T21:47:06.373Z,6.57
2018-06-17T21:50:09.339Z,4.17
2018-06-17T21:53:12.329Z,10.97
2018-06-17T21:56:15.334Z,3.27
2018-06-17T21:59:18.301Z,4.70
2018-06-17T22:02:21.268Z,3.77
2018-06-17T22:05:24.275Z,4.37
2018-06-17T22:08:32.855Z,4.17
2018-06-17T22:11:41.530Z,6.33
2018-06-17T22:14:50.128Z,4.93
2018-06-17T22:17:54.140Z,5.03
2018-06-17T22:20:57.125Z,6.23
2018-06-17T22:24:00.104Z,3.87
2018-06-17T22:27:03.091Z,4.47
2018-06-17T22:30:06.116Z,5.33
2018-06-17T22:33:09.209Z,4.30
2018-06-17T22:36:12.138Z,4.00
2018-06-17T22:39:15.257Z,7.00
2018-06-17T22:42:18.275Z,3.77
2018-06-17T22:45:22.139Z,8.03
2018-06-17T22:48:25.448Z,6.17
2018-06-17T22:51:28.563Z,6.97
2018-06-17T22:54:43.023Z,6.00
2018-06-17T22:57:51.912Z,2.73
2018-06-17T23:01:00.478Z,3.00
2018-06-17T23:04:16.783Z,5.67
2018-06-17T23:07:26.710Z,4.73
2018-06-17T23:10:30.809Z,3.13
2018-06-17T23:13:33.935Z,2.57
2018-06-17T23:16:37.397Z,2.80
2018-06-17T23:19:40.697Z,8.00
2018-06-17T23:22:44.367Z,4.63
2018-06-17T23:25:48.000Z,4.17
2018-06-17T23:28:51.550Z,5.93
2018-06-17T23:31:54.855Z,4.43
2018-06-17T23:34:58.234Z,5.53
2018-06-17T23:38:01.239Z,3.33
2018-06-17T23:41:04.243Z,3.97
2018-06-17T23:44:07.167Z,4.20
2018-06-17T23:47:16.106Z,5.93
2018-06-17T23:50:24.722Z,3.13
2018-06-17T23:53:33.615Z,4.43
2018-06-17T23:56:36.575Z,3.03
2018-06-17T23:59:39.576Z,2.13
